Montague Village, Texas
Current Conditions -  °F | °C
As of 9:56 PM on Wednesday 22 Oct 2014 (Local Time) from KHLR Reporting Station
Clear Clear  
Wind Chill: 72°   Ceiling: Unl
Heat Index: 72°   Visibility: 10mi
Dew Point: 60°   Wind: 0mph
Humidity: 66%   Direction: NA
Pressure: 30.11"   Gusts: NA
Location:  31.2151°N, 97.7405°W
Report Text: KHLR 230256Z 00000KT 10SM CLR 22/16 A3011 RMK AO2 SLPNO 53005 T02220156 $
Loading
Personal Weather Stations






























Interactive Weather Map
Tropical Storm Tracking
New forecast layout! Learn more

10-Day Weather Forecast

Advertisements
Track Severe Weather on mobile